Time;durP1;ratioP1;P1;durP2;ratioP2;P2;SDS_P1;SDS_P2;PMS_P1;PMS_P2;Temp;Humidity;BMP_temperature;BMP_pressure;BME280_temperature;BME280_humidity;BME280_pressure;Samples;Min_cycle;Max_cycle;Signal;HPM_P1;HPM_P2
2021/07/08 00:01:37;;;;;;;;;;;17.10;99.90;;;;;;4898218;29;20017;-75
2021/07/08 00:04:10;;;;;;;;;;;17.10;99.90;;;;;;4915366;29;19927;-75
2021/07/08 00:06:41;;;;;;;;;;;17.10;99.90;;;;;;4902358;29;19927;-75
2021/07/08 00:09:09;;;;;;;;;;;17.00;99.90;;;;;;4901999;29;19927;-76
2021/07/08 00:11:36;;;;;;;;;;;17.10;99.90;;;;;;4917452;29;19934;-75
2021/07/08 00:14:06;;;;;;;;;;;17.10;99.90;;;;;;4918642;29;19927;-75
2021/07/08 00:16:38;;;;;;;;;;;17.10;99.90;;;;;;4918896;29;19927;-75
2021/07/08 00:19:06;;;;;;;;;;;17.00;99.90;;;;;;4901822;29;20394;-75
2021/07/08 00:21:33;;;;;;;;;;;17.00;99.90;;;;;;4901323;29;20465;-75
2021/07/08 00:24:06;;;;;;;;;;;17.00;99.90;;;;;;4919675;29;19934;-74
2021/07/08 00:26:33;;;;;;;;;;;17.10;99.90;;;;;;4901886;29;20291;-74
2021/07/08 00:28:59;;;;;;;;;;;17.10;99.90;;;;;;4901705;29;19951;-75
2021/07/08 00:31:26;;;;;;;;;;;17.10;99.90;;;;;;4918529;29;20539;-75
2021/07/08 00:33:53;;;;;;;;;;;17.00;99.90;;;;;;4901736;29;19927;-74
2021/07/08 00:36:24;;;;;;;;;;;17.00;99.90;;;;;;4901391;29;19931;-75
2021/07/08 00:38:56;;;;;;;;;;;17.00;99.90;;;;;;4901371;29;20030;-74
2021/07/08 00:41:24;;;;;;;;;;;17.00;99.90;;;;;;4901408;29;19934;-74
2021/07/08 00:43:52;;;;;;;;;;;17.10;99.90;;;;;;4901319;29;20314;-74
2021/07/08 00:46:23;;;;;;;;;;;17.10;99.90;;;;;;4918313;29;19934;-75
2021/07/08 00:48:50;;;;;;;;;;;17.10;99.90;;;;;;4885789;29;19963;-74
2021/07/08 00:51:22;;;;;;;;;;;17.10;99.90;;;;;;4900890;29;19927;-75
2021/07/08 00:53:48;;;;;;;;;;;17.10;99.90;;;;;;4917926;29;19934;-75
2021/07/08 00:56:15;;;;;;;;;;;17.10;99.90;;;;;;4901127;29;20485;-75
2021/07/08 00:59:02;;;;;;;;;;;17.10;99.90;;;;;;4916877;29;20394;-75
2021/07/08 01:01:29;;;;;;;;;;;17.10;99.90;;;;;;4915580;29;20021;-75
2021/07/08 01:03:56;;;;;;;;;;;17.10;99.90;;;;;;4916045;29;20477;-75
2021/07/08 01:06:24;;;;;;;;;;;17.00;99.90;;;;;;4900678;29;20018;-74
2021/07/08 01:08:55;;;;;;;;;;;17.00;99.90;;;;;;4915849;29;19927;-75
2021/07/08 01:11:27;;;;;;;;;;;17.00;99.90;;;;;;4915858;29;19973;-75
2021/07/08 01:13:54;;;;;;;;;;;16.90;99.90;;;;;;4899991;29;19933;-76
2021/07/08 01:16:22;;;;;;;;;;;16.90;99.90;;;;;;4916467;29;20021;-76
2021/07/08 01:18:53;;;;;;;;;;;16.90;99.90;;;;;;4900621;29;19927;-75
2021/07/08 01:21:28;;;;;;;;;;;16.90;99.90;;;;;;4900369;29;19933;-76
2021/07/08 01:24:01;;;;;;;;;;;16.90;99.90;;;;;;4916293;29;19933;-75
2021/07/08 01:26:29;;;;;;;;;;;16.90;99.90;;;;;;4900763;29;19926;-75
2021/07/08 01:28:57;;;;;;;;;;;16.90;99.90;;;;;;4915904;29;19927;-75
2021/07/08 01:31:29;;;;;;;;;;;16.90;99.90;;;;;;4884439;29;19949;-75
2021/07/08 01:33:55;;;;;;;;;;;16.90;99.90;;;;;;4915506;29;19934;-75
2021/07/08 01:36:22;;;;;;;;;;;16.80;99.90;;;;;;4915403;29;20030;-75
2021/07/08 01:38:49;;;;;;;;;;;16.80;99.90;;;;;;4915380;29;19934;-75
2021/07/08 01:41:16;;;;;;;;;;;16.70;99.90;;;;;;4899488;29;20404;-75
2021/07/08 01:43:48;;;;;;;;;;;16.70;99.90;;;;;;4899844;29;19938;-75
2021/07/08 01:46:15;;;;;;;;;;;16.70;99.90;;;;;;4884713;29;20376;-75
2021/07/08 01:48:42;;;;;;;;;;;16.70;99.90;;;;;;4899881;29;20297;-75
2021/07/08 01:51:21;;;;;;;;;;;16.70;99.90;;;;;;4915539;29;19927;-76
2021/07/08 01:53:53;;;;;;;;;;;16.70;99.90;;;;;;4916747;29;19927;-76
2021/07/08 01:56:25;;;;;;;;;;;16.60;99.90;;;;;;4899822;29;20371;-75
2021/07/08 01:58:57;;;;;;;;;;;16.60;99.90;;;;;;4900011;29;19927;-75
2021/07/08 02:01:29;;;;;;;;;;;16.70;99.90;;;;;;4916490;29;19927;-74
2021/07/08 02:03:55;;;;;;;;;;;16.60;99.90;;;;;;4899654;29;20062;-75
2021/07/08 02:06:27;;;;;;;;;;;16.60;99.90;;;;;;4900779;29;19927;-75
2021/07/08 02:08:59;;;;;;;;;;;16.60;99.90;;;;;;4899585;29;20022;-76
2021/07/08 02:11:30;;;;;;;;;;;16.60;99.90;;;;;;4900338;29;19927;-75
2021/07/08 02:13:57;;;;;;;;;;;16.60;99.90;;;;;;4899525;29;19927;-75
2021/07/08 02:16:29;;;;;;;;;;;16.60;99.90;;;;;;4899528;29;19938;-75
2021/07/08 02:19:01;;;;;;;;;;;16.60;99.90;;;;;;4899570;29;19934;-74
2021/07/08 02:21:27;;;;;;;;;;;16.60;99.90;;;;;;4915107;29;19957;-75
2021/07/08 02:23:54;;;;;;;;;;;16.60;99.90;;;;;;4915154;29;20026;-75
2021/07/08 02:26:26;;;;;;;;;;;16.60;99.90;;;;;;4884586;29;19934;-75
2021/07/08 02:28:57;;;;;;;;;;;16.60;99.90;;;;;;4899111;29;19938;-75
2021/07/08 02:31:24;;;;;;;;;;;16.60;99.90;;;;;;4915987;29;20380;-75
2021/07/08 02:33:55;;;;;;;;;;;16.60;99.90;;;;;;4914779;29;19932;-75
2021/07/08 02:36:27;;;;;;;;;;;16.50;99.90;;;;;;4916484;29;20398;-75
2021/07/08 02:38:59;;;;;;;;;;;16.60;99.90;;;;;;4915015;29;19927;-75
2021/07/08 02:41:25;;;;;;;;;;;16.60;99.90;;;;;;4898842;29;19934;-75
2021/07/08 02:43:52;;;;;;;;;;;16.60;99.90;;;;;;4914827;29;20033;-75
2021/07/08 02:46:19;;;;;;;;;;;16.60;99.90;;;;;;4916028;29;19927;-75
2021/07/08 02:48:45;;;;;;;;;;;16.60;99.90;;;;;;4899107;29;19937;-75
2021/07/08 02:51:17;;;;;;;;;;;16.70;99.90;;;;;;4898751;29;19933;-75
2021/07/08 02:53:49;;;;;;;;;;;16.70;99.90;;;;;;4884044;29;19933;-75
2021/07/08 02:56:20;;;;;;;;;;;16.70;99.90;;;;;;4899115;29;19933;-75
2021/07/08 02:58:47;;;;;;;;;;;16.70;99.90;;;;;;4914630;29;20026;-75
2021/07/08 03:01:14;;;;;;;;;;;16.70;99.90;;;;;;4898614;29;20119;-75
2021/07/08 03:03:40;;;;;;;;;;;16.70;99.90;;;;;;4898925;29;19937;-75
2021/07/08 03:06:07;;;;;;;;;;;16.70;99.90;;;;;;4915842;29;19928;-75
2021/07/08 03:08:38;;;;;;;;;;;16.70;99.90;;;;;;4899034;29;19951;-76
2021/07/08 03:11:11;;;;;;;;;;;16.70;99.90;;;;;;4914329;29;19934;-76
2021/07/08 03:13:42;;;;;;;;;;;16.70;99.90;;;;;;4899531;29;19938;-75
2021/07/08 03:16:14;;;;;;;;;;;16.70;99.90;;;;;;4884155;29;20227;-75
2021/07/08 03:18:41;;;;;;;;;;;16.70;99.90;;;;;;4914556;29;19959;-75
2021/07/08 03:21:07;;;;;;;;;;;16.70;99.90;;;;;;4915167;29;20030;-76
2021/07/08 03:23:35;;;;;;;;;;;16.70;99.90;;;;;;4898572;29;20390;-75
2021/07/08 03:26:02;;;;;;;;;;;16.70;99.90;;;;;;4898713;29;20034;-75
2021/07/08 03:28:29;;;;;;;;;;;16.80;99.90;;;;;;4914555;29;20022;-75
2021/07/08 03:31:00;;;;;;;;;;;16.80;99.90;;;;;;4883702;29;19933;-75
2021/07/08 03:33:27;;;;;;;;;;;16.80;99.90;;;;;;4898669;29;20398;-75
2021/07/08 03:35:53;;;;;;;;;;;16.80;99.90;;;;;;4914832;29;19927;-75
2021/07/08 03:38:25;;;;;;;;;;;16.80;99.90;;;;;;4884243;29;19933;-75
2021/07/08 03:40:57;;;;;;;;;;;16.80;99.90;;;;;;4900925;29;20355;-75
2021/07/08 03:43:28;;;;;;;;;;;16.80;99.90;;;;;;4902699;29;19934;-75
2021/07/08 03:46:00;;;;;;;;;;;16.80;99.90;;;;;;4919210;29;20412;-75
2021/07/08 03:48:26;;;;;;;;;;;16.90;99.90;;;;;;4902197;29;19933;-76
2021/07/08 03:50:53;;;;;;;;;;;16.90;99.90;;;;;;4901627;29;19938;-75
2021/07/08 03:53:25;;;;;;;;;;;16.90;99.90;;;;;;4901548;29;19938;-76
2021/07/08 03:55:51;;;;;;;;;;;16.90;99.90;;;;;;4918465;29;19927;-75
2021/07/08 03:58:18;;;;;;;;;;;16.90;99.90;;;;;;4901492;29;19950;-75
2021/07/08 04:00:45;;;;;;;;;;;16.80;99.90;;;;;;4917101;29;19927;-75
2021/07/08 04:03:17;;;;;;;;;;;16.80;99.90;;;;;;4901078;29;19931;-74
2021/07/08 04:05:44;;;;;;;;;;;16.80;99.90;;;;;;4901444;29;19962;-74
2021/07/08 04:08:11;;;;;;;;;;;16.90;99.90;;;;;;4901299;29;19931;-76
2021/07/08 04:10:43;;;;;;;;;;;16.80;99.90;;;;;;4922674;29;19927;-78
2021/07/08 04:13:11;;;;;;;;;;;16.80;99.90;;;;;;4897589;29;19937;-75
2021/07/08 04:15:39;;;;;;;;;;;16.80;99.90;;;;;;4900644;29;19931;-75
2021/07/08 04:18:11;;;;;;;;;;;16.80;99.90;;;;;;4900670;29;19934;-75
2021/07/08 04:20:38;;;;;;;;;;;16.80;99.90;;;;;;4900445;29;19978;-75
2021/07/08 04:23:06;;;;;;;;;;;16.80;99.90;;;;;;4884472;29;19933;-75
2021/07/08 04:25:32;;;;;;;;;;;16.80;99.90;;;;;;4900655;29;19927;-75
2021/07/08 04:27:59;;;;;;;;;;;16.90;99.90;;;;;;4900592;29;20025;-75
2021/07/08 04:30:26;;;;;;;;;;;16.80;99.90;;;;;;4917124;29;19927;-74
2021/07/08 04:32:58;;;;;;;;;;;16.70;99.90;;;;;;4899676;29;19933;-74
2021/07/08 04:35:38;;;;;;;;;;;16.70;99.90;;;;;;4916713;29;20014;-74
2021/07/08 04:38:06;;;;;;;;;;;16.70;99.90;;;;;;4916621;29;20034;-73
2021/07/08 04:40:39;;;;;;;;;;;16.70;99.90;;;;;;4917495;29;19931;-74
2021/07/08 04:43:07;;;;;;;;;;;16.70;99.90;;;;;;4900437;29;20034;-74
2021/07/08 04:45:38;;;;;;;;;;;16.70;99.90;;;;;;4901627;29;19931;-75
2021/07/08 04:48:08;;;;;;;;;;;16.70;99.90;;;;;;4900685;29;19934;-75
2021/07/08 04:50:35;;;;;;;;;;;16.60;99.90;;;;;;4916371;29;19934;-74
2021/07/08 04:53:01;;;;;;;;;;;16.60;99.90;;;;;;4896992;29;19931;-74
2021/07/08 04:55:28;;;;;;;;;;;16.50;99.90;;;;;;4882178;29;19931;-75
2021/07/08 04:57:55;;;;;;;;;;;16.50;99.90;;;;;;4882415;29;20388;-75
2021/07/08 05:00:27;;;;;;;;;;;16.50;99.90;;;;;;4896207;29;20427;-75
2021/07/08 05:02:54;;;;;;;;;;;16.50;99.90;;;;;;4911652;29;20021;-75
2021/07/08 05:05:21;;;;;;;;;;;16.50;99.90;;;;;;4883888;29;20026;-74
2021/07/08 05:07:50;;;;;;;;;;;16.50;99.90;;;;;;4900236;29;20026;-74
2021/07/08 05:10:17;;;;;;;;;;;16.50;99.90;;;;;;4899350;29;20394;-75
2021/07/08 05:12:49;;;;;;;;;;;16.50;99.90;;;;;;4900697;29;19937;-75
2021/07/08 05:15:16;;;;;;;;;;;16.50;99.90;;;;;;4915653;29;20374;-75
2021/07/08 05:17:43;;;;;;;;;;;16.50;99.90;;;;;;4900400;29;19933;-75
2021/07/08 05:20:10;;;;;;;;;;;16.50;99.90;;;;;;4900383;29;20412;-74
2021/07/08 05:22:38;;;;;;;;;;;16.50;99.90;;;;;;4899499;29;20007;-75
2021/07/08 05:25:12;;;;;;;;;;;16.60;99.90;;;;;;4899760;29;19927;-75
2021/07/08 05:27:38;;;;;;;;;;;16.70;99.90;;;;;;4884535;29;20029;-74
2021/07/08 05:30:06;;;;;;;;;;;16.70;99.90;;;;;;4915787;29;20018;-74
2021/07/08 05:32:37;;;;;;;;;;;16.80;99.90;;;;;;4915364;29;20014;-75
2021/07/08 05:35:05;;;;;;;;;;;16.80;99.90;;;;;;4901627;29;20018;-74
2021/07/08 05:37:32;;;;;;;;;;;16.80;99.90;;;;;;4898097;29;19926;-75
2021/07/08 05:39:58;;;;;;;;;;;16.80;99.90;;;;;;4896214;29;19927;-74
2021/07/08 05:42:30;;;;;;;;;;;16.90;99.90;;;;;;4899239;29;19934;-74
2021/07/08 05:45:02;;;;;;;;;;;16.90;99.90;;;;;;4916522;29;20366;-75
2021/07/08 05:47:29;;;;;;;;;;;16.90;99.90;;;;;;4899351;29;19931;-74
2021/07/08 05:49:56;;;;;;;;;;;16.90;99.90;;;;;;4919610;29;19970;-75
2021/07/08 05:52:22;;;;;;;;;;;17.00;99.90;;;;;;4898424;29;19934;-75
2021/07/08 05:54:49;;;;;;;;;;;17.00;99.90;;;;;;4883315;29;19931;-75
2021/07/08 05:57:16;;;;;;;;;;;16.90;99.90;;;;;;4899754;29;19927;-75
2021/07/08 05:59:48;;;;;;;;;;;17.00;99.90;;;;;;4916697;29;19927;-75
2021/07/08 06:02:20;;;;;;;;;;;17.00;99.90;;;;;;4898933;29;19931;-76
2021/07/08 06:04:51;;;;;;;;;;;17.00;99.90;;;;;;4900024;29;19927;-75
2021/07/08 06:07:24;;;;;;;;;;;17.00;99.90;;;;;;4899674;29;20771;-75
2021/07/08 06:09:50;;;;;;;;;;;17.00;99.90;;;;;;4899508;29;19933;-75
2021/07/08 06:12:22;;;;;;;;;;;17.10;99.90;;;;;;4899221;29;19927;-75
2021/07/08 06:14:49;;;;;;;;;;;17.10;99.90;;;;;;4882947;29;20151;-75
2021/07/08 06:17:21;;;;;;;;;;;17.10;99.90;;;;;;4903643;29;19927;-75
2021/07/08 06:19:53;;;;;;;;;;;17.20;99.90;;;;;;4930560;29;19934;-75
2021/07/08 06:22:24;;;;;;;;;;;17.20;99.90;;;;;;4915684;29;19927;-75
2021/07/08 06:24:51;;;;;;;;;;;17.20;99.90;;;;;;4900049;29;20030;-75
2021/07/08 06:27:18;;;;;;;;;;;17.30;99.90;;;;;;4899813;29;20022;-76
2021/07/08 06:29:44;;;;;;;;;;;17.40;99.90;;;;;;4899287;29;19934;-75
2021/07/08 06:32:14;;;;;;;;;;;17.40;99.90;;;;;;4898832;29;19927;-76
2021/07/08 06:34:41;;;;;;;;;;;17.50;99.90;;;;;;4898620;29;20025;-75
2021/07/08 06:37:13;;;;;;;;;;;17.50;99.90;;;;;;4899435;29;19933;-75
2021/07/08 06:39:40;;;;;;;;;;;17.60;99.90;;;;;;4899530;29;19970;-75
2021/07/08 06:42:07;;;;;;;;;;;17.60;99.90;;;;;;4930273;29;20337;-75
2021/07/08 06:44:39;;;;;;;;;;;17.60;99.90;;;;;;4899582;29;19934;-75
2021/07/08 06:47:06;;;;;;;;;;;17.60;99.90;;;;;;4899183;29;20018;-75
2021/07/08 06:49:38;;;;;;;;;;;17.60;99.90;;;;;;4898791;29;20014;-76
2021/07/08 06:52:05;;;;;;;;;;;17.60;99.90;;;;;;4914042;29;19966;-75
2021/07/08 06:54:37;;;;;;;;;;;17.70;99.90;;;;;;4929464;29;19934;-75
2021/07/08 06:57:04;;;;;;;;;;;17.80;99.90;;;;;;4914701;29;19955;-75
2021/07/08 06:59:31;;;;;;;;;;;17.80;99.90;;;;;;4898588;29;20013;-75
2021/07/08 07:01:57;;;;;;;;;;;17.90;99.90;;;;;;4898313;29;20473;-75
2021/07/08 07:04:24;;;;;;;;;;;17.90;99.90;;;;;;4929825;29;20376;-75
2021/07/08 07:06:56;;;;;;;;;;;17.90;99.90;;;;;;4898154;29;19927;-75
2021/07/08 07:09:22;;;;;;;;;;;17.90;99.90;;;;;;4898607;29;19993;-75
2021/07/08 07:11:54;;;;;;;;;;;17.90;99.90;;;;;;4898055;29;19927;-75
2021/07/08 07:14:25;;;;;;;;;;;17.80;99.90;;;;;;4898046;29;19927;-75
2021/07/08 07:16:57;;;;;;;;;;;17.70;99.90;;;;;;4902277;29;19927;-75
2021/07/08 07:19:29;;;;;;;;;;;17.50;99.90;;;;;;4903102;29;20044;-74
2021/07/08 07:21:56;;;;;;;;;;;17.30;99.90;;;;;;4933156;29;19962;-75
2021/07/08 07:24:27;;;;;;;;;;;17.20;99.90;;;;;;4902929;29;19927;-75
2021/07/08 07:26:54;;;;;;;;;;;17.20;99.90;;;;;;4919208;29;19927;-75
2021/07/08 07:29:21;;;;;;;;;;;17.20;99.90;;;;;;4933707;29;20018;-75
2021/07/08 07:31:47;;;;;;;;;;;17.20;99.90;;;;;;4918854;29;19935;-75
2021/07/08 07:34:14;;;;;;;;;;;17.20;99.90;;;;;;4900125;29;19934;-75
2021/07/08 07:36:41;;;;;;;;;;;17.30;99.90;;;;;;4916373;29;19979;-75
2021/07/08 07:39:13;;;;;;;;;;;17.40;99.90;;;;;;4902144;29;19927;-75
2021/07/08 07:41:39;;;;;;;;;;;17.60;99.90;;;;;;4917206;29;20217;-75
2021/07/08 07:44:06;;;;;;;;;;;17.80;99.90;;;;;;4901760;29;20018;-75
2021/07/08 07:46:37;;;;;;;;;;;17.90;99.90;;;;;;4917542;29;20684;-75
2021/07/08 07:49:04;;;;;;;;;;;18.10;99.90;;;;;;4901950;29;19934;-75
2021/07/08 07:51:36;;;;;;;;;;;18.30;99.90;;;;;;4901157;29;19937;-75
2021/07/08 07:54:03;;;;;;;;;;;18.50;99.90;;;;;;4916289;29;20018;-77
2021/07/08 07:56:35;;;;;;;;;;;18.50;99.90;;;;;;4903670;29;19979;-74
2021/07/08 07:59:01;;;;;;;;;;;18.50;99.90;;;;;;4898391;29;20022;-74
2021/07/08 08:01:28;;;;;;;;;;;18.40;99.90;;;;;;4899110;29;19967;-74
2021/07/08 08:03:57;;;;;;;;;;;18.40;99.90;;;;;;4913905;29;19975;-74
2021/07/08 08:09:18;;;;;;;;;;;18.40;99.90;;;;;;4929562;29;19928;-74
2021/07/08 08:11:50;;;;;;;;;;;18.50;99.90;;;;;;4914079;29;19934;-74
2021/07/08 08:14:22;;;;;;;;;;;18.40;99.90;;;;;;4897464;29;19934;-74
2021/07/08 08:16:53;;;;;;;;;;;18.40;99.90;;;;;;4929875;29;19927;-74
2021/07/08 08:19:25;;;;;;;;;;;18.50;99.90;;;;;;4898084;29;19934;-74
2021/07/08 08:21:52;;;;;;;;;;;18.50;99.90;;;;;;4897579;29;19927;-74
2021/07/08 08:24:24;;;;;;;;;;;18.50;99.90;;;;;;4897221;29;19933;-74
2021/07/08 08:26:52;;;;;;;;;;;18.60;99.90;;;;;;4898864;29;19927;-74
2021/07/08 08:29:25;;;;;;;;;;;18.60;99.90;;;;;;4901170;29;19927;-74
2021/07/08 08:31:56;;;;;;;;;;;18.70;99.90;;;;;;4916817;29;20333;-75
2021/07/08 08:34:28;;;;;;;;;;;18.70;99.90;;;;;;4916540;29;19933;-74
2021/07/08 08:37:00;;;;;;;;;;;18.70;99.90;;;;;;4901054;29;20314;-74
2021/07/08 08:39:26;;;;;;;;;;;18.60;99.90;;;;;;4900916;29;19927;-74
2021/07/08 08:41:58;;;;;;;;;;;18.60;99.90;;;;;;4918128;29;19949;-75
2021/07/08 08:44:31;;;;;;;;;;;18.60;99.90;;;;;;4900245;29;19937;-74
2021/07/08 08:46:57;;;;;;;;;;;18.60;99.90;;;;;;4876518;29;19933;-75
2021/07/08 08:49:24;;;;;;;;;;;18.70;99.90;;;;;;4915847;29;20394;-75
2021/07/08 08:51:56;;;;;;;;;;;18.90;99.90;;;;;;4900395;29;20386;-75
2021/07/08 08:54:23;;;;;;;;;;;19.10;99.90;;;;;;4916021;29;19927;-75
2021/07/08 08:56:49;;;;;;;;;;;19.20;99.90;;;;;;4896364;29;20025;-76
2021/07/08 08:59:16;;;;;;;;;;;19.40;99.90;;;;;;4915977;29;20018;-75
2021/07/08 09:01:42;;;;;;;;;;;19.40;99.90;;;;;;4900377;29;20025;-75
2021/07/08 09:04:33;;;;;;;;;;;19.40;99.90;;;;;;4916512;29;19940;-74
2021/07/08 09:07:26;;;;;;;;;;;19.40;99.90;;;;;;4916974;29;19927;-75
2021/07/08 09:09:58;;;;;;;;;;;19.40;99.90;;;;;;4916094;29;19933;-75
2021/07/08 09:12:30;;;;;;;;;;;19.40;99.90;;;;;;4915681;29;19931;-75
2021/07/08 09:15:15;;;;;;;;;;;19.50;99.90;;;;;;4900527;29;19927;-75
2021/07/08 09:17:47;;;;;;;;;;;19.50;99.90;;;;;;4917447;29;19927;-74
2021/07/08 09:20:20;;;;;;;;;;;19.40;99.90;;;;;;4900076;29;19934;-74
2021/07/08 09:23:05;;;;;;;;;;;19.40;99.90;;;;;;4898279;29;19927;-77
2021/07/08 09:25:32;;;;;;;;;;;19.40;99.90;;;;;;4899804;29;19965;-76
2021/07/08 09:28:10;;;;;;;;;;;19.40;99.90;;;;;;4899774;29;19934;-75
2021/07/08 09:30:43;;;;;;;;;;;19.40;99.90;;;;;;4915481;29;19927;-75
2021/07/08 09:33:30;;;;;;;;;;;19.40;99.90;;;;;;4884453;29;19927;-75
2021/07/08 09:36:10;;;;;;;;;;;19.30;99.90;;;;;;4916210;29;19931;-75
2021/07/08 09:38:43;;;;;;;;;;;19.20;99.90;;;;;;4900307;29;19927;-75
2021/07/08 09:41:17;;;;;;;;;;;19.20;99.90;;;;;;4899301;29;20033;-76
2021/07/08 09:43:44;;;;;;;;;;;19.10;99.90;;;;;;4884087;29;19927;-75
2021/07/08 09:46:11;;;;;;;;;;;19.00;99.90;;;;;;4916497;29;20014;-75
2021/07/08 09:49:03;;;;;;;;;;;19.00;99.90;;;;;;4899477;29;19927;-75
2021/07/08 09:51:35;;;;;;;;;;;18.90;99.90;;;;;;4899526;29;19927;-75
2021/07/08 09:54:07;;;;;;;;;;;18.80;99.90;;;;;;4899322;29;19938;-74
2021/07/08 09:56:43;;;;;;;;;;;18.80;99.90;;;;;;4916524;29;20059;-76
2021/07/08 09:59:20;;;;;;;;;;;18.80;99.90;;;;;;4900266;29;19927;-74
2021/07/08 10:01:56;;;;;;;;;;;18.80;99.90;;;;;;4898848;29;19927;-75
2021/07/08 10:04:23;;;;;;;;;;;18.70;99.90;;;;;;4899383;29;19967;-75
2021/07/08 10:06:55;;;;;;;;;;;18.70;99.90;;;;;;4899801;29;19934;-75
2021/07/08 10:09:26;;;;;;;;;;;18.60;99.90;;;;;;4916421;29;19966;-75
2021/07/08 10:11:55;;;;;;;;;;;18.50;99.90;;;;;;4925912;29;19927;-75
2021/07/08 10:14:27;;;;;;;;;;;18.60;99.90;;;;;;4895657;29;19928;-75
2021/07/08 10:16:58;;;;;;;;;;;18.60;99.90;;;;;;4896063;29;20085;-75
2021/07/08 10:19:25;;;;;;;;;;;18.70;99.90;;;;;;4927448;29;19975;-75
2021/07/08 10:21:54;;;;;;;;;;;18.70;99.90;;;;;;4896485;29;19928;-75
2021/07/08 10:24:21;;;;;;;;;;;18.70;99.90;;;;;;4927226;29;19933;-74
2021/07/08 10:26:53;;;;;;;;;;;18.70;99.90;;;;;;4898143;29;20412;-75
2021/07/08 10:29:25;;;;;;;;;;;18.70;99.90;;;;;;4910847;29;20356;-75
2021/07/08 10:31:51;;;;;;;;;;;18.70;99.90;;;;;;4897036;29;19927;-74
2021/07/08 10:34:23;;;;;;;;;;;18.60;99.90;;;;;;4914623;29;19933;-75
2021/07/08 10:36:50;;;;;;;;;;;18.70;99.90;;;;;;4898699;29;19931;-75
2021/07/08 10:39:22;;;;;;;;;;;18.70;99.90;;;;;;4898717;29;19962;-75
2021/07/08 10:41:50;;;;;;;;;;;18.60;99.90;;;;;;4913853;29;20029;-74
2021/07/08 10:44:34;;;;;;;;;;;18.70;99.90;;;;;;4898302;29;20033;-74
2021/07/08 10:47:02;;;;;;;;;;;18.60;99.90;;;;;;4913190;29;20378;-75
2021/07/08 10:49:40;;;;;;;;;;;18.50;99.90;;;;;;4897473;29;19966;-73
2021/07/08 10:52:11;;;;;;;;;;;18.50;99.90;;;;;;4913576;29;19939;-75
2021/07/08 10:54:46;;;;;;;;;;;18.50;99.90;;;;;;4895011;29;20017;-74
2021/07/08 10:57:49;;;;;;;;;;;18.50;99.90;;;;;;4898050;29;20017;-74
2021/07/08 11:00:35;;;;;;;;;;;18.40;99.90;;;;;;4835241;29;20027;-75
2021/07/08 11:03:02;;;;;;;;;;;18.40;99.90;;;;;;4909000;29;20649;-75
2021/07/08 11:06:03;;;;;;;;;;;18.30;99.90;;;;;;4913829;29;20078;-74
2021/07/08 11:08:44;;;;;;;;;;;18.10;99.90;;;;;;4885323;29;20420;-74
2021/07/08 11:11:18;;;;;;;;;;;18.00;99.90;;;;;;4898430;29;19934;-75
2021/07/08 11:13:45;;;;;;;;;;;17.90;99.90;;;;;;4898406;29;20408;-75
2021/07/08 11:16:36;;;;;;;;;;;17.80;99.90;;;;;;4914172;29;19933;-75
2021/07/08 11:19:03;;;;;;;;;;;17.70;99.90;;;;;;4914113;29;19962;-75
2021/07/08 11:21:53;;;;;;;;;;;17.50;99.90;;;;;;4897550;29;20386;-76
2021/07/08 11:24:20;;;;;;;;;;;17.50;99.90;;;;;;4914820;29;20505;-75
2021/07/08 11:27:08;;;;;;;;;;;17.40;99.90;;;;;;4897560;29;19934;-75
2021/07/08 11:29:35;;;;;;;;;;;17.30;99.90;;;;;;4897012;29;19973;-75
2021/07/08 11:32:22;;;;;;;;;;;17.20;99.90;;;;;;4896399;29;19931;-75
2021/07/08 11:34:59;;;;;;;;;;;17.20;99.90;;;;;;4872866;29;20331;-75
2021/07/08 11:37:44;;;;;;;;;;;17.10;99.90;;;;;;4897543;29;20398;-75
2021/07/08 11:40:12;;;;;;;;;;;17.20;99.90;;;;;;4883410;29;19931;-75
2021/07/08 11:42:39;;;;;;;;;;;17.20;99.90;;;;;;4882029;29;20114;-75
2021/07/08 11:45:06;;;;;;;;;;;17.20;99.90;;;;;;4897762;29;20010;-75
2021/07/08 11:47:39;;;;;;;;;;;17.20;99.90;;;;;;4914794;29;19934;-75
2021/07/08 11:50:17;;;;;;;;;;;17.20;99.90;;;;;;4898489;29;19927;-74
2021/07/08 11:52:43;;;;;;;;;;;17.20;99.90;;;;;;4897557;29;19989;-75
2021/07/08 11:55:11;;;;;;;;;;;17.20;99.90;;;;;;4914696;29;19927;-74
2021/07/08 11:57:56;;;;;;;;;;;17.20;99.90;;;;;;4898717;29;19933;-74
2021/07/08 12:00:26;;;;;;;;;;;17.20;99.90;;;;;;4882518;29;19927;-74
2021/07/08 12:02:53;;;;;;;;;;;17.20;99.90;;;;;;4900541;29;20390;-74
2021/07/08 12:05:21;;;;;;;;;;;17.10;99.90;;;;;;4918165;29;19977;-74
2021/07/08 12:07:57;;;;;;;;;;;17.10;99.90;;;;;;4886507;29;20022;-75
2021/07/08 12:10:30;;;;;;;;;;;17.00;99.90;;;;;;4902239;29;20306;-75
2021/07/08 12:12:58;;;;;;;;;;;17.00;99.90;;;;;;4884916;29;20396;-75
2021/07/08 12:15:25;;;;;;;;;;;17.00;99.90;;;;;;4885330;29;20489;-74
2021/07/08 12:17:58;;;;;;;;;;;17.10;99.90;;;;;;4899253;29;19937;-74
2021/07/08 12:20:25;;;;;;;;;;;17.10;99.90;;;;;;4899459;29;20017;-74
2021/07/08 12:23:01;;;;;;;;;;;17.10;99.90;;;;;;4899892;29;19931;-75
2021/07/08 12:25:29;;;;;;;;;;;17.10;99.90;;;;;;4899745;29;20060;-74
2021/07/08 12:27:56;;;;;;;;;;;17.10;99.90;;;;;;4885032;29;19937;-74
2021/07/08 12:30:28;;;;;;;;;;;17.10;99.90;;;;;;4900277;29;19933;-74
2021/07/08 12:33:06;;;;;;;;;;;17.10;99.90;;;;;;4900695;29;19950;-75
2021/07/08 12:35:51;;;;;;;;;;;17.20;99.90;;;;;;4899091;29;19927;-74
2021/07/08 12:38:23;;;;;;;;;;;17.30;99.90;;;;;;4897872;29;19931;-75
2021/07/08 12:40:50;;;;;;;;;;;17.40;99.90;;;;;;4899304;29;19927;-74
2021/07/08 12:43:18;;;;;;;;;;;17.50;99.90;;;;;;4900186;29;19962;-74
2021/07/08 12:45:45;;;;;;;;;;;17.50;99.90;;;;;;4978482;23;19954;-75
2021/07/08 12:48:17;;;;;;;;;;;17.60;99.90;;;;;;4918422;29;19927;-74
2021/07/08 12:50:48;;;;;;;;;;;17.60;99.90;;;;;;4914621;29;19935;-74
2021/07/08 12:53:20;;;;;;;;;;;17.70;99.90;;;;;;4913790;29;19933;-74
2021/07/08 12:55:48;;;;;;;;;;;17.70;99.90;;;;;;4916864;29;20100;-75
2021/07/08 12:58:15;;;;;;;;;;;17.70;99.90;;;;;;4915370;29;19926;-76
2021/07/08 13:00:47;;;;;;;;;;;17.70;99.90;;;;;;4914697;29;19951;-75
2021/07/08 13:03:15;;;;;;;;;;;17.70;99.90;;;;;;4897685;29;19993;-75
2021/07/08 13:05:48;;;;;;;;;;;17.70;99.90;;;;;;4929050;29;20313;-74
2021/07/08 13:08:22;;;;;;;;;;;17.80;99.90;;;;;;4915048;29;19927;-75
2021/07/08 13:10:50;;;;;;;;;;;17.80;99.90;;;;;;4912207;29;19931;-74
2021/07/08 13:13:23;;;;;;;;;;;17.90;99.90;;;;;;4914539;29;20382;-75
2021/07/08 13:15:50;;;;;;;;;;;17.90;99.90;;;;;;4915352;29;19931;-75
2021/07/08 13:18:29;;;;;;;;;;;17.80;99.90;;;;;;4910428;29;19933;-74
2021/07/08 13:21:10;;;;;;;;;;;17.80;99.90;;;;;;4896690;29;19928;-76
2021/07/08 13:23:37;;;;;;;;;;;17.70;99.90;;;;;;4927528;29;20033;-75
2021/07/08 13:26:10;;;;;;;;;;;17.70;99.90;;;;;;4926051;29;19932;-75
2021/07/08 13:28:42;;;;;;;;;;;17.60;99.90;;;;;;4897069;29;20018;-74
2021/07/08 13:31:09;;;;;;;;;;;17.60;99.90;;;;;;4911282;29;20306;-75
2021/07/08 13:33:45;;;;;;;;;;;17.60;99.90;;;;;;4915576;29;20223;-75
2021/07/08 13:36:19;;;;;;;;;;;17.60;99.90;;;;;;4929697;29;20344;-75
2021/07/08 13:38:46;;;;;;;;;;;17.60;99.90;;;;;;4930237;29;19927;-75
2021/07/08 13:41:28;;;;;;;;;;;17.70;99.90;;;;;;4915217;29;19931;-75
2021/07/08 13:44:05;;;;;;;;;;;17.70;99.90;;;;;;4915993;29;19970;-75
2021/07/08 13:46:36;;;;;;;;;;;17.80;99.90;;;;;;4930397;29;20381;-74
2021/07/08 13:49:04;;;;;;;;;;;17.80;99.90;;;;;;4924875;29;19927;-75
2021/07/08 13:51:38;;;;;;;;;;;17.90;99.90;;;;;;4911146;29;19927;-75
2021/07/08 13:54:10;;;;;;;;;;;18.00;99.90;;;;;;4914538;29;20026;-75
2021/07/08 13:56:36;;;;;;;;;;;18.00;99.90;;;;;;4915513;29;19966;-74
2021/07/08 13:59:04;;;;;;;;;;;18.10;99.90;;;;;;4926420;29;19927;-75
2021/07/08 14:01:31;;;;;;;;;;;18.60;99.90;;;;;;4910650;29;19927;-75
2021/07/08 14:04:03;;;;;;;;;;;19.10;99.90;;;;;;4929524;29;20419;-75
2021/07/08 14:06:33;;;;;;;;;;;19.70;99.90;;;;;;4930377;29;19953;-75
2021/07/08 14:09:06;;;;;;;;;;;20.10;99.90;;;;;;4930410;29;20386;-75
2021/07/08 14:11:38;;;;;;;;;;;20.50;99.90;;;;;;4929783;29;19928;-75
2021/07/08 14:14:04;;;;;;;;;;;20.80;99.90;;;;;;4913204;29;19928;-76
2021/07/08 14:16:31;;;;;;;;;;;21.00;99.90;;;;;;4898918;29;19927;-75
2021/07/08 14:19:03;;;;;;;;;;;21.30;99.90;;;;;;4914536;29;19934;-75
2021/07/08 14:21:30;;;;;;;;;;;21.00;99.90;;;;;;4896974;29;19931;-74
2021/07/08 14:23:57;;;;;;;;;;;20.60;99.90;;;;;;4914691;29;20022;-75
2021/07/08 14:26:29;;;;;;;;;;;19.90;99.90;;;;;;4914491;29;20259;-75
2021/07/08 14:28:55;;;;;;;;;;;19.40;99.90;;;;;;4914136;29;19974;-75
2021/07/08 14:31:22;;;;;;;;;;;19.10;99.90;;;;;;4913732;29;20026;-74
2021/07/08 14:33:54;;;;;;;;;;;19.00;99.90;;;;;;4929682;29;19927;-75
2021/07/08 14:36:20;;;;;;;;;;;18.90;99.90;;;;;;4929847;29;20430;-75
2021/07/08 14:38:52;;;;;;;;;;;18.90;99.90;;;;;;4930264;29;19927;-73